createdAt,value
2023-05-21T00:02:24.099Z,95712.47
2023-05-21T00:04:52.351Z,95711.63
2023-05-21T00:07:20.386Z,95706.56
2023-05-21T00:09:47.966Z,95708.69
2023-05-21T00:12:15.630Z,95701.75
2023-05-21T00:14:43.177Z,95701.22
2023-05-21T00:17:12.077Z,95696.94
2023-05-21T00:19:39.788Z,95697.19
2023-05-21T00:22:07.344Z,95697.19
2023-05-21T00:24:34.952Z,95692.13
2023-05-21T00:27:02.694Z,95691.59
2023-05-21T00:29:30.239Z,95687.31
2023-05-21T00:31:57.860Z,95689.44
2023-05-21T00:34:27.234Z,95694.25
2023-05-21T00:36:55.515Z,95698.78
2023-05-21T00:39:23.098Z,95689.19
2023-05-21T00:41:50.952Z,95690.22
2023-05-21T00:44:19.566Z,95681.69
2023-05-21T00:46:48.762Z,95695.81
2023-05-21T00:49:16.938Z,95693.41
2023-05-21T00:51:46.123Z,95688.59
2023-05-21T00:54:13.949Z,95682.47
2023-05-21T00:56:42.413Z,95687.28
2023-05-21T00:59:10.046Z,95684.03
2023-05-21T01:01:37.778Z,95685.91
2023-05-21T01:04:06.009Z,95684.31
2023-05-21T01:06:35.291Z,95685.38
2023-05-21T01:09:06.775Z,95689.91
2023-05-21T01:11:39.832Z,95684.81
2023-05-21T01:14:09.329Z,95678.16
2023-05-21T01:16:38.741Z,95686.16
2023-05-21T01:19:07.976Z,95683.75
2023-05-21T01:21:38.302Z,95682.97
2023-05-21T01:24:07.843Z,95676.81
2023-05-21T01:26:38.706Z,95675.22
2023-05-21T01:29:07.226Z,95675.47
2023-05-21T01:31:41.512Z,95664.25
2023-05-21T01:34:12.112Z,95676.00
2023-05-21T01:36:44.651Z,95666.41
2023-05-21T01:39:21.379Z,95674.13
2023-05-21T01:41:50.638Z,95666.66
2023-05-21T01:44:19.738Z,95668.53
2023-05-21T01:46:47.609Z,95669.56
2023-05-21T01:49:16.500Z,95666.13
2023-05-21T01:51:44.760Z,95663.72
2023-05-21T01:54:12.346Z,95662.88
2023-05-21T01:56:41.350Z,95666.63
2023-05-21T01:59:09.066Z,95657.03
2023-05-21T02:01:36.771Z,95664.22
2023-05-21T02:04:04.465Z,95664.22
2023-05-21T02:06:32.199Z,95659.16
2023-05-21T02:08:59.761Z,95658.34
2023-05-21T02:11:27.728Z,95655.66
2023-05-21T02:13:57.765Z,95661.00
2023-05-21T02:16:26.423Z,95663.13
2023-05-21T02:18:57.458Z,95655.13
2023-05-21T02:21:25.139Z,95664.19
2023-05-21T02:23:52.771Z,95654.84
2023-05-21T02:26:21.782Z,95651.41
2023-05-21T02:28:49.360Z,95645.25
2023-05-21T02:31:18.276Z,95642.59
2023-05-21T02:33:46.219Z,95639.91
2023-05-21T02:36:15.262Z,95642.59
2023-05-21T02:38:43.574Z,95639.91
2023-05-21T02:41:11.787Z,95639.38
2023-05-21T02:43:39.385Z,95637.78
2023-05-21T02:46:08.075Z,95642.31
2023-05-21T02:48:36.974Z,95644.44
2023-05-21T02:51:04.732Z,95640.69
2023-05-21T02:53:32.322Z,95645.47
2023-05-21T02:55:59.887Z,95647.09
2023-05-21T02:58:27.485Z,95647.09
2023-05-21T03:00:55.121Z,95651.59
2023-05-21T03:03:22.876Z,95651.84
2023-05-21T03:05:52.913Z,95651.84
2023-05-21T03:08:21.331Z,95648.38
2023-05-21T03:10:49.650Z,95649.44
2023-05-21T03:13:17.316Z,95652.34
2023-05-21T03:15:46.461Z,95648.91
2023-05-21T03:18:14.134Z,95657.94
2023-05-21T03:20:43.777Z,95655.28
2023-05-21T03:23:16.501Z,95651.03
2023-05-21T03:25:45.876Z,95646.75
2023-05-21T03:28:13.595Z,95648.63
2023-05-21T03:30:41.840Z,95647.00
2023-05-21T03:33:11.028Z,95657.91
2023-05-21T03:35:38.766Z,95658.97
2023-05-21T03:38:06.392Z,95658.16
2023-05-21T03:40:35.410Z,95661.09
2023-05-21T03:43:03.016Z,95662.13
2023-05-21T03:45:30.660Z,95663.22
2023-05-21T03:47:58.209Z,95666.94
2023-05-21T03:50:25.813Z,95663.72
2023-05-21T03:52:53.378Z,95672.50
2023-05-21T03:55:21.088Z,95672.50
2023-05-21T03:57:50.081Z,95680.50
2023-05-21T04:00:17.894Z,95676.25
2023-05-21T04:02:45.641Z,95672.75
2023-05-21T04:05:13.250Z,95678.34
2023-05-21T04:07:40.890Z,95685.28
2023-05-21T04:10:09.517Z,95685.03
2023-05-21T04:12:37.299Z,95681.56
2023-05-21T04:15:07.793Z,95685.03
2023-05-21T04:17:35.518Z,95691.16
2023-05-21T04:20:04.303Z,95685.03
2023-05-21T04:22:31.880Z,95695.19
2023-05-21T04:24:59.629Z,95695.19
2023-05-21T04:27:27.553Z,95694.09
2023-05-21T04:29:55.635Z,95698.38
2023-05-21T04:32:25.001Z,95696.25
2023-05-21T04:34:52.606Z,95696.81
2023-05-21T04:37:20.253Z,95702.69
2023-05-21T04:39:48.017Z,95701.91
2023-05-21T04:42:15.579Z,95703.53
2023-05-21T04:44:44.421Z,95702.44
2023-05-21T04:47:14.823Z,95707.53
2023-05-21T04:49:44.222Z,95703.06
2023-05-21T04:52:12.343Z,95707.28
2023-05-21T04:54:41.854Z,95705.72
2023-05-21T04:57:09.893Z,95708.59
2023-05-21T04:59:37.617Z,95705.13
2023-05-21T05:02:05.447Z,95707.78
2023-05-21T05:04:33.070Z,95709.66
2023-05-21T05:07:01.993Z,95709.41
2023-05-21T05:09:30.347Z,95707.28
2023-05-21T05:11:57.967Z,95715.28
2023-05-21T05:14:25.574Z,95719.81
2023-05-21T05:16:54.445Z,95720.63
2023-05-21T05:19:22.204Z,95716.13
2023-05-21T05:21:49.881Z,95722.78
2023-05-21T05:24:18.869Z,95728.66
2023-05-21T05:26:46.440Z,95727.34
2023-05-21T05:29:14.030Z,95713.22
2023-05-21T05:31:41.725Z,95719.88
2023-05-21T05:34:09.425Z,95718.31
2023-05-21T05:36:37.036Z,95712.22
2023-05-21T05:39:04.965Z,95719.94
2023-05-21T05:41:33.875Z,95710.91
2023-05-21T05:44:01.554Z,95707.72
2023-05-21T05:46:30.108Z,95706.38
2023-05-21T05:48:57.719Z,95709.63
2023-05-21T05:51:25.321Z,95709.34
2023-05-21T05:53:53.940Z,95715.47
2023-05-21T05:56:21.638Z,95713.88
2023-05-21T05:58:50.627Z,95720.56
2023-05-21T06:01:18.201Z,95727.00
2023-05-21T06:03:45.992Z,95727.28
2023-05-21T06:06:13.798Z,95727.56
2023-05-21T06:08:41.521Z,95730.53
2023-05-21T06:11:09.563Z,95726.50
2023-05-21T06:13:37.183Z,95729.19
2023-05-21T06:16:07.525Z,95727.63
2023-05-21T06:18:35.188Z,95732.19
2023-05-21T06:21:02.796Z,95733.28
2023-05-21T06:23:32.085Z,95727.16
2023-05-21T06:25:59.794Z,95730.63
2023-05-21T06:28:27.405Z,95719.97
2023-05-21T06:30:55.062Z,95725.59
2023-05-21T06:33:24.203Z,95722.72
2023-05-21T06:35:51.976Z,95724.59
2023-05-21T06:38:19.568Z,95735.78
2023-05-21T06:40:48.301Z,95735.28
2023-05-21T06:43:15.943Z,95731.81
2023-05-21T06:45:43.650Z,95742.25
2023-05-21T06:48:12.172Z,95738.50
2023-05-21T06:50:41.275Z,95733.19
2023-05-21T06:53:08.888Z,95740.16
2023-05-21T06:55:37.306Z,95739.09
2023-05-21T06:58:05.120Z,95740.94
2023-05-21T07:00:32.733Z,95729.19
2023-05-21T07:03:00.563Z,95731.88
2023-05-21T07:05:28.332Z,95734.53
2023-05-21T07:07:57.403Z,95733.50
2023-05-21T07:10:25.009Z,95739.63
2023-05-21T07:12:52.647Z,95730.56
2023-05-21T07:15:20.382Z,95725.22
2023-05-21T07:17:47.986Z,95735.06
2023-05-21T07:20:15.853Z,95731.09
2023-05-21T07:22:44.899Z,95727.06
2023-05-21T07:25:13.810Z,95735.06
2023-05-21T07:27:41.398Z,95731.06
2023-05-21T07:30:10.699Z,95728.44
2023-05-21T07:32:38.359Z,95720.41
2023-05-21T07:35:06.753Z,95724.94
2023-05-21T07:37:34.418Z,95727.88
2023-05-21T07:40:02.044Z,95724.66
2023-05-21T07:42:32.050Z,95731.09
2023-05-21T07:44:59.696Z,95720.63
2023-05-21T07:47:27.396Z,95718.22
2023-05-21T07:49:55.042Z,95720.34
2023-05-21T07:52:22.778Z,95713.41
2023-05-21T07:54:50.634Z,95720.88
2023-05-21T07:57:18.166Z,95724.59
2023-05-21T07:59:47.077Z,95719.53
2023-05-21T08:02:14.673Z,95727.00
2023-05-21T08:04:42.319Z,95728.31
2023-05-21T08:07:10.663Z,95735.00
2023-05-21T08:09:38.346Z,95732.06
2023-05-21T08:12:06.460Z,95726.44
2023-05-21T08:14:34.059Z,95721.59
2023-05-21T08:17:02.981Z,95725.91
2023-05-21T08:19:31.228Z,95729.34
2023-05-21T08:21:58.978Z,95720.00
2023-05-21T08:24:27.023Z,95712.22
2023-05-21T08:26:54.598Z,95714.38
2023-05-21T08:29:22.184Z,95715.97
2023-05-21T08:31:49.870Z,95706.88
2023-05-21T08:34:18.856Z,95710.63
2023-05-21T08:36:47.879Z,95710.88
2023-05-21T08:39:15.542Z,95707.91
2023-05-21T08:41:49.409Z,95715.41
2023-05-21T08:44:22.040Z,95708.16
2023-05-21T08:46:51.709Z,95709.50
2023-05-21T08:49:27.750Z,95707.88
2023-05-21T08:51:56.259Z,95707.88
2023-05-21T08:54:23.897Z,95710.00
2023-05-21T08:56:52.054Z,95707.88
2023-05-21T08:59:23.094Z,95716.44
2023-05-21T09:01:52.167Z,95711.59
2023-05-21T09:04:22.167Z,95711.31
2023-05-21T09:06:50.848Z,95714.53
2023-05-21T09:09:24.235Z,95718.53
2023-05-21T09:11:51.829Z,95710.50
2023-05-21T09:14:20.548Z,95711.81
2023-05-21T09:16:49.177Z,95707.53
2023-05-21T09:19:16.842Z,95710.50
2023-05-21T09:21:45.877Z,95700.06
2023-05-21T09:24:15.224Z,95700.88
2023-05-21T09:26:43.722Z,95694.44
2023-05-21T09:29:11.310Z,95698.47
2023-05-21T09:31:44.337Z,95696.59
2023-05-21T09:34:13.927Z,95699.53
2023-05-21T09:36:41.674Z,95704.91
2023-05-21T09:39:11.732Z,95700.59
2023-05-21T09:41:39.333Z,95703.28
2023-05-21T09:44:06.950Z,95702.50
2023-05-21T09:46:41.475Z,95703.28
2023-05-21T09:49:23.865Z,95699.53
2023-05-21T09:51:51.533Z,95696.06
2023-05-21T09:54:23.937Z,95703.28
2023-05-21T09:56:52.486Z,95704.63
2023-05-21T09:59:22.017Z,95706.75
2023-05-21T10:01:52.309Z,95702.44
2023-05-21T10:04:20.672Z,95704.03
2023-05-21T10:06:50.939Z,95701.34
2023-05-21T10:09:21.461Z,95702.16
2023-05-21T10:11:50.639Z,95698.13
2023-05-21T10:14:21.081Z,95701.31
2023-05-21T10:16:49.157Z,95694.91
2023-05-21T10:19:17.202Z,95702.66
2023-05-21T10:21:46.660Z,95700.78
2023-05-21T10:24:14.785Z,95702.91
2023-05-21T10:26:43.950Z,95695.69
2023-05-21T10:29:13.316Z,95689.22
2023-05-21T10:31:41.360Z,95697.25
2023-05-21T10:34:09.748Z,95686.56
2023-05-21T10:36:38.844Z,95687.09
2023-05-21T10:39:09.505Z,95692.19
2023-05-21T10:41:45.286Z,95684.94
2023-05-21T10:44:22.724Z,95680.09
2023-05-21T10:47:11.209Z,95677.66
2023-05-21T10:50:00.264Z,95678.19
2023-05-21T10:52:45.403Z,95676.81
2023-05-21T10:55:24.299Z,95673.59
2023-05-21T10:58:16.679Z,95670.06
2023-05-21T11:00:46.472Z,95673.28
2023-05-21T11:03:15.945Z,95671.91
2023-05-21T11:05:55.120Z,95668.94
2023-05-21T11:08:24.062Z,95665.22
2023-05-21T11:10:57.854Z,95672.19
2023-05-21T11:13:26.294Z,95667.84
2023-05-21T11:16:15.881Z,95665.66
2023-05-21T11:18:58.624Z,95671.03
2023-05-21T11:21:31.126Z,95665.09
2023-05-21T11:24:08.373Z,95665.38
2023-05-21T11:27:04.814Z,95665.59
2023-05-21T11:29:41.883Z,95664.53
2023-05-21T11:32:12.103Z,95669.88
2023-05-21T11:34:47.379Z,95662.38
2023-05-21T11:37:34.640Z,95659.44
2023-05-21T11:40:18.557Z,95657.53
2023-05-21T11:42:51.553Z,95661.81
2023-05-21T11:45:20.239Z,95648.44
2023-05-21T11:47:50.119Z,95655.41
2023-05-21T11:50:18.750Z,95654.00
2023-05-21T11:52:46.508Z,95649.97
2023-05-21T11:55:15.622Z,95650.50
2023-05-21T11:57:44.737Z,95648.31
2023-05-21T12:00:17.617Z,95647.75
2023-05-21T12:02:47.327Z,95650.16
2023-05-21T12:05:16.595Z,95650.41
2023-05-21T12:07:48.454Z,95644.75
2023-05-21T12:10:16.060Z,95653.03
2023-05-21T12:12:54.668Z,95651.38
2023-05-21T12:15:25.094Z,95648.13
2023-05-21T12:17:53.545Z,95644.66
2023-05-21T12:20:23.218Z,95641.69
2023-05-21T12:22:51.014Z,95643.00
2023-05-21T12:25:20.462Z,95640.03
2023-05-21T12:27:50.208Z,95641.63
2023-05-21T12:30:17.923Z,95630.91
2023-05-21T12:32:45.550Z,95635.97
2023-05-21T12:35:24.002Z,95638.91
2023-05-21T12:37:52.472Z,95643.69
2023-05-21T12:40:21.163Z,95637.47
2023-05-21T12:42:48.951Z,95633.69
2023-05-21T12:45:18.517Z,95641.19
2023-05-21T12:47:49.895Z,95651.34
2023-05-21T12:50:22.732Z,95653.44
2023-05-21T12:52:50.314Z,95653.66
2023-05-21T12:55:18.296Z,95652.03
2023-05-21T12:57:46.495Z,95650.66
2023-05-21T13:00:14.369Z,95648.47
2023-05-21T13:02:44.345Z,95651.66
2023-05-21T13:05:17.176Z,95657.81
2023-05-21T13:07:47.694Z,95658.31
2023-05-21T13:10:17.227Z,95655.56
2023-05-21T13:12:45.071Z,95652.59
2023-05-21T13:15:13.206Z,95649.13
2023-05-21T13:17:40.844Z,95648.84
2023-05-21T13:20:11.971Z,95650.44
2023-05-21T13:22:42.251Z,95645.28
2023-05-21T13:25:12.219Z,95649.59
2023-05-21T13:27:40.017Z,95639.91
2023-05-21T13:30:09.524Z,95638.03
2023-05-21T13:32:37.338Z,95636.16
2023-05-21T13:35:05.941Z,95640.72
2023-05-21T13:37:36.030Z,95642.31
2023-05-21T13:40:03.898Z,95647.97
2023-05-21T13:42:33.222Z,95648.75
2023-05-21T13:45:00.829Z,95644.22
2023-05-21T13:47:28.544Z,95645.00
2023-05-21T13:49:56.179Z,95651.97
2023-05-21T13:52:23.800Z,95650.09
2023-05-21T13:54:51.379Z,95642.81
2023-05-21T13:57:19.279Z,95646.00
2023-05-21T13:59:48.347Z,95651.09
2023-05-21T14:02:15.968Z,95648.94
2023-05-21T14:04:43.555Z,95646.75
2023-05-21T14:07:11.891Z,95642.69
2023-05-21T14:09:39.498Z,95642.91
2023-05-21T14:12:07.470Z,95642.84
2023-05-21T14:14:35.054Z,95644.44
2023-05-21T14:17:03.970Z,95638.00
2023-05-21T14:19:31.649Z,95639.28
2023-05-21T14:21:59.837Z,95639.78
2023-05-21T14:24:27.486Z,95632.53
2023-05-21T14:26:55.082Z,95637.34
2023-05-21T14:29:22.641Z,95638.13
2023-05-21T14:31:50.325Z,95638.13
2023-05-21T14:34:19.286Z,95634.66
2023-05-21T14:36:46.936Z,95636.22
2023-05-21T14:39:14.502Z,95635.94
2023-05-21T14:41:42.619Z,95629.28
2023-05-21T14:44:10.166Z,95626.06
2023-05-21T14:46:37.818Z,95629.84
2023-05-21T14:49:05.447Z,95628.53
2023-05-21T14:51:34.376Z,95632.34
2023-05-21T14:54:02.009Z,95638.00
2023-05-21T14:56:29.576Z,95645.22
2023-05-21T14:58:57.232Z,95638.28
2023-05-21T15:01:25.207Z,95642.84
2023-05-21T15:03:52.960Z,95648.78
2023-05-21T15:06:20.739Z,95655.25
2023-05-21T15:08:49.643Z,95657.41
2023-05-21T15:11:17.220Z,95660.38
2023-05-21T15:13:44.754Z,95666.03
2023-05-21T15:16:12.334Z,95659.38
2023-05-21T15:18:40.043Z,95658.56
2023-05-21T15:21:07.792Z,95667.72
2023-05-21T15:23:35.374Z,95660.75
2023-05-21T15:26:04.464Z,95668.78
2023-05-21T15:28:32.047Z,95670.41
2023-05-21T15:30:59.605Z,95663.94
2023-05-21T15:33:27.241Z,95649.72
2023-05-21T15:35:54.844Z,95648.41
2023-05-21T15:38:22.411Z,95645.22
2023-05-21T15:40:50.085Z,95653.56
2023-05-21T15:43:19.005Z,95653.84
2023-05-21T15:45:46.556Z,95653.84
2023-05-21T15:48:14.713Z,95651.16
2023-05-21T15:50:42.378Z,95660.81
2023-05-21T15:53:11.835Z,95653.25
2023-05-21T15:55:39.554Z,95655.44
2023-05-21T15:58:07.390Z,95654.94
2023-05-21T16:00:36.428Z,95655.22
2023-05-21T16:03:04.595Z,95649.91
2023-05-21T16:05:32.240Z,95651.00
2023-05-21T16:07:59.785Z,95656.94
2023-05-21T16:10:27.336Z,95653.75
2023-05-21T16:12:54.927Z,95656.72
2023-05-21T16:15:22.500Z,95662.06
2023-05-21T16:17:51.448Z,95665.84
2023-05-21T16:20:21.650Z,95662.66
2023-05-21T16:22:49.277Z,95666.16
2023-05-21T16:25:16.951Z,95667.72
2023-05-21T16:27:44.493Z,95670.13
2023-05-21T16:30:14.207Z,95669.03
2023-05-21T16:32:42.003Z,95669.03
2023-05-21T16:35:11.016Z,95670.66
2023-05-21T16:37:38.646Z,95667.69
2023-05-21T16:40:07.616Z,95666.06
2023-05-21T16:42:35.233Z,95666.59
2023-05-21T16:45:02.832Z,95673.56
2023-05-21T16:47:30.381Z,95674.06
2023-05-21T16:49:58.537Z,95679.13
2023-05-21T16:52:27.489Z,95681.25
2023-05-21T16:54:55.142Z,95676.41
2023-05-21T16:57:22.714Z,95679.59
2023-05-21T16:59:50.295Z,95676.91
2023-05-21T17:02:17.995Z,95680.09
2023-05-21T17:04:46.099Z,95676.63
2023-05-21T17:07:13.732Z,95684.69
2023-05-21T17:09:42.712Z,95681.19
2023-05-21T17:12:10.332Z,95676.13
2023-05-21T17:14:39.584Z,95684.47
2023-05-21T17:17:07.264Z,95679.66
2023-05-21T17:19:34.994Z,95679.97
2023-05-21T17:22:02.686Z,95672.47
2023-05-21T17:24:30.772Z,95671.94
2023-05-21T17:26:59.963Z,95671.44
2023-05-21T17:29:27.514Z,95678.16
2023-05-21T17:31:55.360Z,95671.22
2023-05-21T17:34:26.080Z,95675.28
2023-05-21T17:36:54.956Z,95680.38
2023-05-21T17:39:22.648Z,95686.81
2023-05-21T17:41:51.289Z,95687.94
2023-05-21T17:44:21.537Z,95685.53
2023-05-21T17:46:50.863Z,95690.06
2023-05-21T17:49:19.002Z,95695.72
2023-05-21T17:51:46.562Z,95690.66
2023-05-21T17:54:14.891Z,95683.69
2023-05-21T17:56:43.189Z,95686.66
2023-05-21T17:59:12.635Z,95683.16
2023-05-21T18:01:41.640Z,95679.19
2023-05-21T18:04:12.070Z,95683.75
2023-05-21T18:06:39.877Z,95680.84
2023-05-21T18:09:08.036Z,95690.78
2023-05-21T18:11:35.757Z,95681.41
2023-05-21T18:14:03.890Z,95681.97
2023-05-21T18:16:31.724Z,95684.16
2023-05-21T18:19:02.016Z,95691.69
2023-05-21T18:21:29.658Z,95685.00
2023-05-21T18:23:57.218Z,95687.16
2023-05-21T18:26:25.016Z,95689.31
2023-05-21T18:28:52.657Z,95689.88
2023-05-21T18:31:20.480Z,95686.47
2023-05-21T18:33:48.604Z,95694.53
2023-05-21T18:36:18.627Z,95690.56
2023-05-21T18:38:46.217Z,95696.75
2023-05-21T18:41:13.828Z,95692.25
2023-05-21T18:43:42.396Z,95697.59
2023-05-21T18:46:10.036Z,95701.34
2023-05-21T18:48:37.677Z,95702.75
2023-05-21T18:51:05.293Z,95697.94
2023-05-21T18:53:34.323Z,95700.91
2023-05-21T18:56:01.950Z,95699.28
2023-05-21T18:58:30.274Z,95699.06
2023-05-21T19:00:58.011Z,95702.03
2023-05-21T19:03:25.992Z,95703.91
2023-05-21T19:05:53.585Z,95698.28
2023-05-21T19:08:21.311Z,95699.91
2023-05-21T19:10:50.592Z,95703.66
2023-05-21T19:13:18.198Z,95708.50
2023-05-21T19:15:47.994Z,95704.78
2023-05-21T19:18:17.045Z,95711.75
2023-05-21T19:20:44.656Z,95715.78
2023-05-21T19:23:12.242Z,95716.34
2023-05-21T19:25:39.859Z,95721.47
2023-05-21T19:28:08.806Z,95725.19
2023-05-21T19:30:36.727Z,95728.44
2023-05-21T19:33:05.036Z,95737.56
2023-05-21T19:35:32.649Z,95739.69
2023-05-21T19:38:02.435Z,95744.03
2023-05-21T19:40:31.844Z,95745.88
2023-05-21T19:42:59.482Z,95750.22
2023-05-21T19:45:28.382Z,95747.28
2023-05-21T19:47:56.668Z,95752.91
2023-05-21T19:50:24.579Z,95751.59
2023-05-21T19:52:52.201Z,95763.66
2023-05-21T19:55:20.195Z,95771.16
2023-05-21T19:57:48.249Z,95769.56
2023-05-21T20:00:16.633Z,95767.69
2023-05-21T20:02:45.817Z,95781.91
2023-05-21T20:05:13.786Z,95776.81
2023-05-21T20:07:41.418Z,95776.84
2023-05-21T20:10:09.782Z,95777.09
2023-05-21T20:12:38.828Z,95778.19
2023-05-21T20:15:07.587Z,95783.00
2023-05-21T20:17:35.886Z,95784.88
2023-05-21T20:20:11.045Z,95792.91
2023-05-21T20:22:38.637Z,95796.38
2023-05-21T20:25:08.702Z,95788.34
2023-05-21T20:27:38.577Z,95786.50
2023-05-21T20:30:07.894Z,95787.00
2023-05-21T20:32:35.620Z,95792.13
2023-05-21T20:35:04.109Z,95787.56
2023-05-21T20:37:33.801Z,95789.19
2023-05-21T20:40:01.548Z,95797.47
2023-05-21T20:42:34.220Z,95789.44
2023-05-21T20:45:02.915Z,95792.13
2023-05-21T20:47:30.743Z,95791.31
2023-05-21T20:49:58.609Z,95795.34
2023-05-21T20:52:26.753Z,95791.34
2023-05-21T20:54:56.537Z,95793.22
2023-05-21T20:57:25.993Z,95789.19
2023-05-21T20:59:53.611Z,95788.13
2023-05-21T21:02:22.905Z,95801.00
2023-05-21T21:04:51.621Z,95795.91
2023-05-21T21:07:19.831Z,95798.88
2023-05-21T21:09:48.185Z,95796.19
2023-05-21T21:14:47.558Z,95797.53
2023-05-21T21:17:15.164Z,95795.91
2023-05-21T21:19:42.741Z,95798.59
2023-05-21T21:22:10.315Z,95805.81
2023-05-21T21:24:37.920Z,95809.56
2023-05-21T21:27:06.622Z,95801.00
2023-05-21T21:29:35.589Z,95801.25
2023-05-21T21:32:03.328Z,95814.63
2023-05-21T21:34:31.033Z,95809.56
2023-05-21T21:36:58.660Z,95809.56
2023-05-21T21:39:26.792Z,95807.94
2023-05-21T21:41:54.542Z,95810.63
2023-05-21T21:44:22.197Z,95801.28
2023-05-21T21:46:51.238Z,95803.16
2023-05-21T21:49:18.837Z,95804.22
2023-05-21T21:51:46.604Z,95806.91
2023-05-21T21:54:14.246Z,95807.97
2023-05-21T21:56:42.143Z,95801.81
2023-05-21T21:59:09.804Z,95812.00
2023-05-21T22:01:37.625Z,95812.28
2023-05-21T22:04:06.685Z,95807.19
2023-05-21T22:06:34.283Z,95813.88
2023-05-21T22:09:02.089Z,95815.75
2023-05-21T22:11:29.662Z,95815.75
2023-05-21T22:13:57.244Z,95822.16
2023-05-21T22:16:25.637Z,95821.38
2023-05-21T22:18:54.045Z,95837.44
2023-05-21T22:21:26.834Z,95845.72
2023-05-21T22:23:54.561Z,95846.50
2023-05-21T22:26:22.958Z,95834.47
2023-05-21T22:28:50.602Z,95839.03
2023-05-21T22:31:18.448Z,95848.94
2023-05-21T22:33:46.120Z,95848.13
2023-05-21T22:36:13.689Z,95854.56
2023-05-21T22:38:43.442Z,95867.38
2023-05-21T22:41:11.232Z,95868.47
2023-05-21T22:43:38.986Z,95866.06
2023-05-21T22:46:06.755Z,95862.59
2023-05-21T22:48:37.026Z,95851.06
2023-05-21T22:51:05.383Z,95823.53
2023-05-21T22:53:34.142Z,95811.22
2023-05-21T22:56:03.170Z,95811.50
2023-05-21T22:58:30.801Z,95832.09
2023-05-21T23:00:58.586Z,95844.41
2023-05-21T23:03:26.264Z,95852.44
2023-05-21T23:05:53.827Z,95841.19
2023-05-21T23:08:21.402Z,95848.69
2023-05-21T23:10:49.039Z,95846.78
2023-05-21T23:13:17.935Z,95841.72
2023-05-21T23:15:45.754Z,95851.34
2023-05-21T23:18:13.432Z,95855.91
2023-05-21T23:20:41.777Z,95866.06
2023-05-21T23:23:10.137Z,95875.97
2023-05-21T23:25:37.793Z,95878.09
2023-05-21T23:28:05.701Z,95870.34
2023-05-21T23:30:34.555Z,95880.22
2023-05-21T23:33:02.189Z,95884.50
2023-05-21T23:35:29.792Z,95880.22
2023-05-21T23:37:57.401Z,95875.97
2023-05-21T23:40:25.032Z,95876.75
2023-05-21T23:42:52.652Z,95870.06
2023-05-21T23:45:20.321Z,95870.06
2023-05-21T23:47:49.276Z,95873.00
2023-05-21T23:50:17.015Z,95868.75
2023-05-21T23:52:44.854Z,95864.72
2023-05-21T23:55:14.536Z,95856.69
2023-05-21T23:57:42.100Z,95866.59
